createdAt,value
2023-03-11T00:02:21.794Z,98521.09
2023-03-11T00:04:48.288Z,98531.88
2023-03-11T00:07:14.693Z,98539.06
2023-03-11T00:09:41.138Z,98552.94
2023-03-11T00:12:07.828Z,98553.84
2023-03-11T00:14:34.222Z,98570.81
2023-03-11T00:17:00.657Z,98575.81
2023-03-11T00:19:27.096Z,98581.69
2023-03-11T00:21:53.576Z,98590.53
2023-03-11T00:24:20.246Z,98595.69
2023-03-11T00:26:46.683Z,98599.16
2023-03-11T00:29:13.394Z,98613.06
2023-03-11T00:31:39.829Z,98617.66
2023-03-11T00:34:06.225Z,98625.56
2023-03-11T00:36:36.377Z,98637.72
2023-03-11T00:39:06.654Z,98635.41
2023-03-11T00:41:36.238Z,98644.75
2023-03-11T00:44:03.168Z,98639.47
2023-03-11T00:46:31.013Z,98651.84
2023-03-11T00:48:57.707Z,98664.50
2023-03-11T00:51:24.139Z,98671.66
2023-03-11T00:53:50.519Z,98691.09
2023-03-11T00:56:17.133Z,98686.25
2023-03-11T00:58:45.238Z,98691.03
2023-03-11T01:01:14.970Z,98704.31
2023-03-11T01:03:42.025Z,98713.69
2023-03-11T01:06:09.018Z,98716.28
2023-03-11T01:08:35.787Z,98715.47
2023-03-11T01:11:03.674Z,98725.19
2023-03-11T01:13:30.850Z,98741.09
2023-03-11T01:15:57.439Z,98745.88
2023-03-11T01:18:24.430Z,98765.38
2023-03-11T01:20:51.114Z,98774.94
2023-03-11T01:23:18.945Z,98764.75
2023-03-11T01:25:45.592Z,98783.47
2023-03-11T01:28:13.447Z,98794.16
2023-03-11T01:30:41.640Z,98792.78
2023-03-11T01:33:13.614Z,98804.66
2023-03-11T01:35:42.192Z,98816.41
2023-03-11T01:38:08.628Z,98827.59
2023-03-11T01:40:44.317Z,98825.53
2023-03-11T01:43:41.795Z,98835.66
2023-03-11T01:46:11.111Z,98842.59
2023-03-11T01:48:38.781Z,98842.16
2023-03-11T01:51:07.227Z,98851.00
2023-03-11T01:53:34.291Z,98870.66
2023-03-11T01:56:03.493Z,98878.06
2023-03-11T01:58:37.630Z,98898.72
2023-03-11T02:01:04.359Z,98903.78
2023-03-11T02:03:36.957Z,98904.59
2023-03-11T02:06:07.717Z,98919.84
2023-03-11T02:08:34.573Z,98914.84
2023-03-11T02:11:03.615Z,98931.91
2023-03-11T02:13:31.938Z,98937.00
2023-03-11T02:16:00.567Z,98957.16
2023-03-11T02:18:27.604Z,98969.44
2023-03-11T02:21:13.753Z,98957.16
2023-03-11T02:24:08.810Z,98968.88
2023-03-11T02:26:58.910Z,98979.34
2023-03-11T02:29:27.748Z,98995.69
2023-03-11T02:31:56.760Z,99000.28
2023-03-11T02:34:29.517Z,99008.88
2023-03-11T02:36:56.314Z,99017.91
2023-03-11T02:39:38.105Z,99029.97
2023-03-11T02:42:30.966Z,99047.91
2023-03-11T02:45:08.044Z,99054.59
2023-03-11T02:47:37.147Z,99055.16
2023-03-11T02:50:04.782Z,99063.19
2023-03-11T02:52:35.361Z,99074.72
2023-03-11T02:55:07.434Z,99080.38
2023-03-11T02:57:34.016Z,99091.59
2023-03-11T03:00:06.318Z,99103.91
2023-03-11T03:02:32.772Z,99101.22
2023-03-11T03:04:59.170Z,99110.09
2023-03-11T03:07:25.624Z,99114.34
2023-03-11T03:09:52.040Z,99137.38
2023-03-11T03:12:18.448Z,99104.97
2023-03-11T03:14:44.833Z,99135.50
2023-03-11T03:17:11.350Z,99143.84
2023-03-11T03:19:37.797Z,99148.41
2023-03-11T03:22:04.289Z,99162.06
2023-03-11T03:24:31.189Z,99161.53
2023-03-11T03:26:57.657Z,99187.78
2023-03-11T03:29:24.104Z,99189.69
2023-03-11T03:31:50.542Z,99197.97
2023-03-11T03:34:16.975Z,99203.88
2023-03-11T03:36:43.374Z,99198.81
2023-03-11T03:39:09.811Z,99207.09
2023-03-11T03:41:36.582Z,99229.06
2023-03-11T03:44:03.462Z,99224.78
2023-03-11T03:46:30.011Z,99226.38
2023-03-11T03:48:56.455Z,99238.44
2023-03-11T03:51:22.972Z,99237.09
2023-03-11T03:53:49.660Z,99242.47
2023-03-11T03:56:17.814Z,99248.63
2023-03-11T03:58:44.376Z,99260.66
2023-03-11T04:01:11.738Z,99265.72
2023-03-11T04:03:39.023Z,99270.03
2023-03-11T04:06:17.397Z,99270.81
2023-03-11T04:08:43.902Z,99270.03
2023-03-11T04:11:10.493Z,99287.94
2023-03-11T04:13:36.903Z,99287.41
2023-03-11T04:16:05.368Z,99291.97
2023-03-11T04:18:32.132Z,99289.56
2023-03-11T04:20:58.688Z,99295.19
2023-03-11T04:23:25.086Z,99311.25
2023-03-11T04:25:51.571Z,99300.00
2023-03-11T04:28:18.091Z,99308.59
2023-03-11T04:30:44.899Z,99316.59
2023-03-11T04:33:11.297Z,99317.69
2023-03-11T04:35:39.059Z,99334.28
2023-03-11T04:38:05.506Z,99336.41
2023-03-11T04:40:32.098Z,99337.50
2023-03-11T04:42:58.612Z,99346.63
2023-03-11T04:45:25.098Z,99344.19
2023-03-11T04:47:52.021Z,99350.63
2023-03-11T04:50:19.083Z,99362.97
2023-03-11T04:52:46.245Z,99364.03
2023-03-11T04:55:13.828Z,99359.50
2023-03-11T04:57:43.883Z,99360.84
2023-03-11T05:00:12.413Z,99352.53
2023-03-11T05:02:39.953Z,99362.97
2023-03-11T05:05:07.208Z,99361.91
2023-03-11T05:07:33.639Z,99362.44
2023-03-11T05:10:00.162Z,99376.34
2023-03-11T05:12:26.595Z,99367.00
2023-03-11T05:14:53.020Z,99376.63
2023-03-11T05:17:19.836Z,99380.66
2023-03-11T05:19:46.795Z,99389.22
2023-03-11T05:22:13.346Z,99394.31
2023-03-11T05:24:40.125Z,99409.31
2023-03-11T05:27:06.515Z,99396.72
2023-03-11T05:29:33.066Z,99410.38
2023-03-11T05:31:59.466Z,99417.06
2023-03-11T05:34:25.928Z,99416.81
2023-03-11T05:36:52.389Z,99422.44
2023-03-11T05:39:18.865Z,99429.94
2023-03-11T05:41:45.285Z,99448.69
2023-03-11T05:44:11.773Z,99451.91
2023-03-11T05:46:38.381Z,99447.38
2023-03-11T05:49:04.874Z,99446.00
2023-03-11T05:51:31.487Z,99442.53
2023-03-11T05:53:58.640Z,99454.06
2023-03-11T05:56:25.156Z,99459.41
2023-03-11T05:58:51.599Z,99455.09
2023-03-11T06:01:19.611Z,99465.81
2023-03-11T06:03:46.264Z,99467.69
2023-03-11T06:06:13.813Z,99469.06
2023-03-11T06:08:45.866Z,99475.47
2023-03-11T06:11:12.312Z,99477.38
2023-03-11T06:13:38.819Z,99497.19
2023-03-11T06:16:05.698Z,99496.09
2023-03-11T06:18:32.216Z,99502.25
2023-03-11T06:20:59.785Z,99493.97
2023-03-11T06:23:26.629Z,99515.13
2023-03-11T06:26:02.215Z,99505.22
2023-03-11T06:28:29.432Z,99513.78
2023-03-11T06:30:58.684Z,99508.72
2023-03-11T06:33:25.040Z,99518.34
2023-03-11T06:35:58.581Z,99522.63
2023-03-11T06:38:25.483Z,99526.13
2023-03-11T06:40:52.400Z,99541.38
2023-03-11T06:43:19.426Z,99540.06
2023-03-11T06:45:46.300Z,99535.47
2023-03-11T06:48:12.929Z,99549.97
2023-03-11T06:50:39.516Z,99560.44
2023-03-11T06:53:08.803Z,99574.09
2023-03-11T06:55:35.704Z,99574.63
2023-03-11T06:58:02.519Z,99582.63
2023-03-11T07:00:31.154Z,99585.38
2023-03-11T07:02:57.817Z,99586.16
2023-03-11T07:05:24.439Z,99597.69
2023-03-11T07:07:55.156Z,99601.44
2023-03-11T07:10:21.675Z,99614.56
2023-03-11T07:12:48.068Z,99607.09
2023-03-11T07:15:14.707Z,99601.72
2023-03-11T07:17:41.122Z,99615.13
2023-03-11T07:20:08.487Z,99624.50
2023-03-11T07:22:34.894Z,99626.63
2023-03-11T07:25:01.308Z,99624.22
2023-03-11T07:27:28.385Z,99628.50
2023-03-11T07:29:55.031Z,99634.69
2023-03-11T07:32:21.564Z,99632.28
2023-03-11T07:34:48.070Z,99650.75
2023-03-11T07:37:14.512Z,99647.00
2023-03-11T07:39:41.515Z,99651.00
2023-03-11T07:42:08.024Z,99654.75
2023-03-11T07:44:34.453Z,99668.66
2023-03-11T07:47:05.987Z,99661.22
2023-03-11T07:49:33.306Z,99678.09
2023-03-11T07:51:59.716Z,99679.16
2023-03-11T07:54:26.233Z,99695.25
2023-03-11T07:56:52.958Z,99695.81
2023-03-11T07:59:19.432Z,99708.13
2023-03-11T08:01:47.089Z,99713.50
2023-03-11T08:04:16.704Z,99708.66
2023-03-11T08:06:45.866Z,99727.19
2023-03-11T08:09:12.756Z,99723.94
2023-03-11T08:11:39.753Z,99733.09
2023-03-11T08:14:06.922Z,99738.72
2023-03-11T08:16:33.539Z,99745.66
2023-03-11T08:19:00.260Z,99751.09
2023-03-11T08:21:29.145Z,99745.22
2023-03-11T08:24:01.662Z,99753.56
2023-03-11T08:26:28.773Z,99743.38
2023-03-11T08:28:57.010Z,99751.38
2023-03-11T08:31:26.189Z,99751.69
2023-03-11T08:33:56.121Z,99759.72
2023-03-11T08:36:22.824Z,99765.66
2023-03-11T08:38:49.298Z,99759.31
2023-03-11T08:41:16.405Z,99770.88
2023-03-11T08:43:44.318Z,99763.16
2023-03-11T08:46:21.037Z,99769.59
2023-03-11T08:48:47.516Z,99763.16
2023-03-11T08:51:14.009Z,99780.34
2023-03-11T08:53:40.758Z,99765.44
2023-03-11T08:56:07.547Z,99772.34
2023-03-11T08:58:34.333Z,99772.69
2023-03-11T09:01:00.945Z,99778.09
2023-03-11T09:03:27.566Z,99776.84
2023-03-11T09:05:58.378Z,99785.09
2023-03-11T09:08:24.928Z,99803.63
2023-03-11T09:10:51.320Z,99794.59
2023-03-11T09:13:17.787Z,99803.44
2023-03-11T09:15:44.231Z,99805.44
2023-03-11T09:18:14.863Z,99806.88
2023-03-11T09:20:42.196Z,99808.03
2023-03-11T09:23:09.733Z,99820.66
2023-03-11T09:25:36.202Z,99816.88
2023-03-11T09:28:02.823Z,99817.41
2023-03-11T09:30:29.905Z,99820.13
2023-03-11T09:32:56.395Z,99818.25
2023-03-11T09:35:23.159Z,99824.41
2023-03-11T09:37:49.682Z,99835.69
2023-03-11T09:40:19.299Z,99838.78
2023-03-11T09:43:04.481Z,99848.50
2023-03-11T09:45:34.530Z,99845.16
2023-03-11T09:48:04.157Z,99848.94
2023-03-11T09:50:54.377Z,99860.84
2023-03-11T09:53:43.773Z,99862.66
2023-03-11T09:56:17.198Z,99864.72
2023-03-11T09:58:47.422Z,99863.06
2023-03-11T10:01:31.503Z,99868.22
2023-03-11T10:04:10.387Z,99875.78
2023-03-11T10:06:38.069Z,99885.72
2023-03-11T10:09:22.609Z,99882.47
2023-03-11T10:11:55.041Z,99884.13
2023-03-11T10:15:11.918Z,99894.81
2023-03-11T10:18:05.077Z,99889.97
2023-03-11T10:21:00.760Z,99892.72
2023-03-11T10:23:36.791Z,99900.00
2023-03-11T10:26:06.948Z,99904.50
2023-03-11T10:28:42.568Z,99904.78
2023-03-11T10:31:34.716Z,99922.63
2023-03-11T10:34:18.107Z,99921.75
2023-03-11T10:37:04.031Z,99922.56
2023-03-11T10:39:32.713Z,99928.75
2023-03-11T10:42:04.522Z,99930.97
2023-03-11T10:44:36.352Z,99924.81
2023-03-11T10:47:03.589Z,99927.50
2023-03-11T10:49:30.677Z,99930.38
2023-03-11T10:51:58.091Z,99927.81
2023-03-11T10:54:45.993Z,99927.03
2023-03-11T10:57:35.867Z,99933.59
2023-03-11T11:00:17.420Z,99937.47
2023-03-11T11:02:58.217Z,99941.53
2023-03-11T11:05:33.683Z,99938.81
2023-03-11T11:08:15.826Z,99944.38
2023-03-11T11:10:56.888Z,99941.63
2023-03-11T11:13:34.828Z,99948.16
2023-03-11T11:16:17.504Z,99955.19
2023-03-11T11:18:49.565Z,99959.25
2023-03-11T11:21:27.639Z,99962.25
2023-03-11T11:24:20.310Z,99958.09
2023-03-11T11:27:14.684Z,99949.91
2023-03-11T11:29:41.709Z,99960.41
2023-03-11T11:32:27.186Z,99960.41
2023-03-11T11:34:53.570Z,99960.78
2023-03-11T11:37:20.859Z,99958.88
2023-03-11T11:39:52.196Z,99965.16
2023-03-11T11:42:20.022Z,99970.56
2023-03-11T11:44:50.487Z,99967.19
2023-03-11T11:47:37.822Z,99966.97
2023-03-11T11:50:13.086Z,99965.06
2023-03-11T11:52:48.565Z,99959.47
2023-03-11T11:55:20.414Z,99965.13
2023-03-11T11:57:47.489Z,99965.66
2023-03-11T12:00:44.443Z,99955.75
2023-03-11T12:03:26.144Z,99966.53
2023-03-11T12:05:58.929Z,99965.16
2023-03-11T12:09:00.752Z,99958.75
2023-03-11T12:11:57.628Z,99958.66
2023-03-11T12:14:35.255Z,99973.25
2023-03-11T12:17:05.298Z,99969.47
2023-03-11T12:19:54.286Z,99964.66
2023-03-11T12:22:26.705Z,99971.69
2023-03-11T12:25:12.974Z,99976.03
2023-03-11T12:27:47.888Z,99977.63
2023-03-11T12:30:23.311Z,99980.06
2023-03-11T12:32:56.458Z,99980.59
2023-03-11T12:35:27.779Z,99985.16
2023-03-11T12:38:07.948Z,99986.78
2023-03-11T12:40:50.316Z,99987.03
2023-03-11T12:43:34.960Z,99987.59
2023-03-11T12:46:14.873Z,99995.66
2023-03-11T12:48:41.388Z,99981.94
2023-03-11T12:51:27.924Z,99991.63
2023-03-11T12:53:55.725Z,99998.91
2023-03-11T12:56:31.310Z,100000.75
2023-03-11T12:59:34.975Z,99992.66
2023-03-11T13:02:19.550Z,99989.53
2023-03-11T13:05:21.554Z,99985.38
2023-03-11T13:08:01.289Z,99989.41
2023-03-11T13:10:35.958Z,99987.06
2023-03-11T13:13:02.898Z,99989.06
2023-03-11T13:15:34.790Z,99999.38
2023-03-11T13:18:12.990Z,100004.19
2023-03-11T13:20:41.240Z,100003.94
2023-03-11T13:23:12.315Z,100012.59
2023-03-11T13:25:43.348Z,100016.91
2023-03-11T13:28:34.712Z,100018.22
2023-03-11T13:31:04.220Z,100016.84
2023-03-11T13:33:54.285Z,100031.66
2023-03-11T13:36:48.638Z,100026.81
2023-03-11T13:39:39.698Z,100034.88
2023-03-11T13:42:31.333Z,100040.09
2023-03-11T13:44:59.462Z,100036.06
2023-03-11T13:47:28.781Z,100037.22
2023-03-11T13:50:20.670Z,100037.84
2023-03-11T13:52:49.624Z,100045.25
2023-03-11T13:55:23.151Z,100041.31
2023-03-11T13:57:52.130Z,100035.59
2023-03-11T14:00:28.464Z,100032.22
2023-03-11T14:02:57.827Z,100042.09
2023-03-11T14:05:27.343Z,100040.03
2023-03-11T14:07:54.246Z,100054.00
2023-03-11T14:10:27.257Z,100049.75
2023-03-11T14:13:20.183Z,100050.78
2023-03-11T14:16:14.525Z,100052.72
2023-03-11T14:19:00.733Z,100052.09
2023-03-11T14:21:27.870Z,100062.84
2023-03-11T14:23:56.096Z,100055.16
2023-03-11T14:26:26.291Z,100062.56
2023-03-11T14:28:55.505Z,100058.09
2023-03-11T14:31:34.096Z,100073.00
2023-03-11T14:34:07.496Z,100075.88
2023-03-11T14:36:45.418Z,100076.28
2023-03-11T14:39:39.245Z,100078.13
2023-03-11T14:42:37.532Z,100080.38
2023-03-11T14:45:10.988Z,100086.88
2023-03-11T14:47:59.484Z,100089.84
2023-03-11T14:50:30.475Z,100100.06
2023-03-11T14:52:56.917Z,100101.41
2023-03-11T14:55:30.499Z,100100.91
2023-03-11T14:58:14.912Z,100102.25
2023-03-11T15:01:04.259Z,100097.91
2023-03-11T15:03:34.198Z,100102.22
2023-03-11T15:06:11.998Z,100103.50
2023-03-11T15:08:44.090Z,100104.00
2023-03-11T15:11:11.150Z,100101.50
2023-03-11T15:13:42.963Z,100101.69
2023-03-11T15:16:38.868Z,100107.09
2023-03-11T15:19:22.043Z,100098.19
2023-03-11T15:21:50.955Z,100100.75
2023-03-11T15:24:25.829Z,100087.50
2023-03-11T15:26:58.306Z,100094.84
2023-03-11T15:29:25.963Z,100099.63
2023-03-11T15:31:52.490Z,100100.44
2023-03-11T15:34:18.877Z,100099.59
2023-03-11T15:36:56.766Z,100097.97
2023-03-11T15:39:32.331Z,100107.41
2023-03-11T15:42:08.060Z,100104.94
2023-03-11T15:44:42.716Z,100108.75
2023-03-11T15:47:15.008Z,100117.38
2023-03-11T15:49:41.845Z,100117.38
2023-03-11T15:52:09.378Z,100119.81
2023-03-11T15:54:36.224Z,100112.53
2023-03-11T15:57:05.945Z,100128.22
2023-03-11T15:59:34.009Z,100135.53
2023-03-11T16:02:00.930Z,100133.38
2023-03-11T16:04:27.530Z,100138.28
2023-03-11T16:07:06.905Z,100138.56
2023-03-11T16:09:34.310Z,100147.22
2023-03-11T16:12:01.901Z,100143.44
2023-03-11T16:14:28.359Z,100137.25
2023-03-11T16:16:54.796Z,100152.88
2023-03-11T16:19:21.283Z,100155.31
2023-03-11T16:21:50.194Z,100157.16
2023-03-11T16:24:21.030Z,100153.41
2023-03-11T16:26:47.895Z,100159.03
2023-03-11T16:29:19.465Z,100163.06
2023-03-11T16:31:46.573Z,100166.00
2023-03-11T16:34:13.208Z,100175.13
2023-03-11T16:36:39.672Z,100180.75
2023-03-11T16:39:06.386Z,100174.00
2023-03-11T16:41:44.246Z,100190.16
2023-03-11T16:44:11.711Z,100188.00
2023-03-11T16:46:38.458Z,100183.94
2023-03-11T16:49:05.375Z,100194.41
2023-03-11T16:51:32.611Z,100185.44
2023-03-11T16:53:59.190Z,100189.16
2023-03-11T16:56:25.707Z,100191.00
2023-03-11T16:58:52.372Z,100190.88
2023-03-11T17:01:19.175Z,100189.25
2023-03-11T17:03:48.858Z,100203.19
2023-03-11T17:06:17.052Z,100202.13
2023-03-11T17:08:48.787Z,100201.50
2023-03-11T17:11:20.980Z,100208.09
2023-03-11T17:13:47.600Z,100220.66
2023-03-11T17:16:14.151Z,100220.63
2023-03-11T17:18:40.788Z,100228.66
2023-03-11T17:21:09.796Z,100225.16
2023-03-11T17:23:36.297Z,100226.72
2023-03-11T17:26:02.772Z,100237.69
2023-03-11T17:28:29.400Z,100233.91
2023-03-11T17:30:55.772Z,100229.81
2023-03-11T17:33:22.203Z,100233.25
2023-03-11T17:35:48.642Z,100243.44
2023-03-11T17:38:16.566Z,100234.22
2023-03-11T17:40:43.166Z,100247.38
2023-03-11T17:43:09.807Z,100247.00
2023-03-11T17:45:38.591Z,100254.50
2023-03-11T17:48:05.287Z,100256.56
2023-03-11T17:50:31.700Z,100264.31
2023-03-11T17:52:58.188Z,100270.28
2023-03-11T17:55:24.704Z,100265.00
2023-03-11T17:57:52.322Z,100267.00
2023-03-11T18:00:19.083Z,100268.06
2023-03-11T18:02:45.461Z,100276.81
2023-03-11T18:05:11.873Z,100276.50
2023-03-11T18:07:42.035Z,100278.94
2023-03-11T18:10:10.669Z,100275.38
2023-03-11T18:12:38.540Z,100275.78
2023-03-11T18:15:08.144Z,100280.41
2023-03-11T18:17:35.197Z,100287.06
2023-03-11T18:20:02.317Z,100290.50
2023-03-11T18:22:28.808Z,100295.34
2023-03-11T18:24:55.312Z,100284.88
2023-03-11T18:27:21.726Z,100289.94
2023-03-11T18:29:48.117Z,100285.63
2023-03-11T18:32:14.663Z,100284.97
2023-03-11T18:34:41.661Z,100292.03
2023-03-11T18:37:08.662Z,100291.31
2023-03-11T18:39:35.252Z,100299.28
2023-03-11T18:42:02.860Z,100289.53
2023-03-11T18:44:29.255Z,100295.94
2023-03-11T18:46:55.781Z,100297.81
2023-03-11T18:49:22.187Z,100297.81
2023-03-11T18:51:48.613Z,100298.78
2023-03-11T18:54:15.068Z,100301.53
2023-03-11T18:56:42.254Z,100295.28
2023-03-11T18:59:11.984Z,100300.06
2023-03-11T19:01:38.564Z,100303.47
2023-03-11T19:04:05.597Z,100295.13
2023-03-11T19:06:32.164Z,100296.41
2023-03-11T19:08:58.761Z,100296.88
2023-03-11T19:11:25.895Z,100296.19
2023-03-11T19:13:53.143Z,100301.44
2023-03-11T19:16:22.375Z,100301.19
2023-03-11T19:18:50.066Z,100306.22
2023-03-11T19:21:17.366Z,100305.16
2023-03-11T19:23:45.274Z,100304.97
2023-03-11T19:26:12.701Z,100304.97
2023-03-11T19:28:39.139Z,100311.63
2023-03-11T19:31:05.691Z,100314.44
2023-03-11T19:33:32.546Z,100315.78
2023-03-11T19:36:01.902Z,100308.38
2023-03-11T19:38:29.419Z,100309.00
2023-03-11T19:41:07.519Z,100318.31
2023-03-11T19:43:35.720Z,100310.03
2023-03-11T19:46:03.811Z,100316.22
2023-03-11T19:48:30.519Z,100314.81
2023-03-11T19:50:58.512Z,100325.31
2023-03-11T19:53:25.975Z,100327.22
2023-03-11T19:55:54.392Z,100327.09
2023-03-11T19:58:24.981Z,100331.91
2023-03-11T20:00:51.715Z,100329.13
2023-03-11T20:03:18.765Z,100326.91
2023-03-11T20:05:46.801Z,100327.97
2023-03-11T20:08:16.427Z,100334.03
2023-03-11T20:10:46.021Z,100330.09
2023-03-11T20:13:14.630Z,100331.38
2023-03-11T20:15:41.189Z,100327.88
2023-03-11T20:18:07.920Z,100336.72
2023-03-11T20:20:37.265Z,100337.53
2023-03-11T20:23:03.812Z,100332.88
2023-03-11T20:25:32.224Z,100339.63
2023-03-11T20:28:00.272Z,100329.97
2023-03-11T20:30:27.594Z,100339.50
2023-03-11T20:32:54.395Z,100333.91
2023-03-11T20:35:21.584Z,100338.44
2023-03-11T20:37:48.214Z,100340.22
2023-03-11T20:40:18.749Z,100338.47
2023-03-11T20:42:47.267Z,100341.59
2023-03-11T20:45:17.427Z,100336.84
2023-03-11T20:47:44.344Z,100339.75
2023-03-11T20:50:14.172Z,100341.72
2023-03-11T20:52:40.626Z,100339.03
2023-03-11T20:55:08.421Z,100336.38
2023-03-11T20:57:35.127Z,100342.66
2023-03-11T21:00:01.601Z,100335.47
2023-03-11T21:02:30.905Z,100337.31
2023-03-11T21:04:57.498Z,100341.63
2023-03-11T21:07:24.002Z,100336.25
2023-03-11T21:09:54.587Z,100333.72
2023-03-11T21:12:21.917Z,100344.75
2023-03-11T21:14:48.475Z,100341.59
2023-03-11T21:17:16.002Z,100344.84
2023-03-11T21:19:42.633Z,100356.13
2023-03-11T21:22:09.521Z,100353.22
2023-03-11T21:24:37.100Z,100349.88
2023-03-11T21:27:03.650Z,100353.69
2023-03-11T21:29:30.767Z,100362.75
2023-03-11T21:31:57.561Z,100352.78
2023-03-11T21:34:24.196Z,100357.53
2023-03-11T21:36:50.744Z,100339.75
2023-03-11T21:39:17.326Z,100340.00
2023-03-11T21:41:43.855Z,100337.19
2023-03-11T21:44:10.312Z,100334.97
2023-03-11T21:46:36.883Z,100342.63
2023-03-11T21:49:03.785Z,100341.38
2023-03-11T21:51:30.329Z,100343.81
2023-03-11T21:53:57.120Z,100347.44
2023-03-11T21:56:24.034Z,100338.59
2023-03-11T21:58:50.575Z,100349.38
2023-03-11T22:01:17.389Z,100355.19
2023-03-11T22:03:44.050Z,100369.03
2023-03-11T22:06:14.916Z,100365.41
2023-03-11T22:08:42.451Z,100370.75
2023-03-11T22:11:17.445Z,100367.63
2023-03-11T22:13:46.660Z,100364.72
2023-03-11T22:16:13.260Z,100362.28
2023-03-11T22:18:42.719Z,100359.47
2023-03-11T22:21:10.831Z,100353.31
2023-03-11T22:23:37.456Z,100365.13
2023-03-11T22:26:03.988Z,100356.31
2023-03-11T22:28:30.404Z,100363.03
2023-03-11T22:30:56.924Z,100361.03
2023-03-11T22:33:23.402Z,100367.63
2023-03-11T22:35:52.816Z,100359.19
2023-03-11T22:38:19.463Z,100360.13
2023-03-11T22:40:45.962Z,100357.44
2023-03-11T22:43:13.048Z,100358.25
2023-03-11T22:45:42.411Z,100359.84
2023-03-11T22:48:08.743Z,100360.56
2023-03-11T22:50:35.180Z,100368.22
2023-03-11T22:53:01.609Z,100364.16
2023-03-11T22:55:28.064Z,100369.59
2023-03-11T22:57:54.635Z,100371.09
2023-03-11T23:00:22.821Z,100366.13
2023-03-11T23:02:55.281Z,100368.59
2023-03-11T23:05:25.783Z,100367.31
2023-03-11T23:07:52.194Z,100370.13
2023-03-11T23:10:21.269Z,100372.78
2023-03-11T23:12:48.332Z,100375.44
2023-03-11T23:15:17.695Z,100376.03
2023-03-11T23:17:44.506Z,100379.78
2023-03-11T23:20:14.562Z,100376.75
2023-03-11T23:22:42.095Z,100374.31
2023-03-11T23:25:12.431Z,100381.47
2023-03-11T23:27:39.006Z,100384.13
2023-03-11T23:30:06.212Z,100387.44
2023-03-11T23:32:32.810Z,100384.88
2023-03-11T23:34:59.321Z,100381.31
2023-03-11T23:37:25.765Z,100378.19
2023-03-11T23:39:52.246Z,100389.00
2023-03-11T23:42:25.393Z,100395.22
2023-03-11T23:44:53.056Z,100392.56
2023-03-11T23:47:19.667Z,100391.09
2023-03-11T23:49:46.095Z,100395.59
2023-03-11T23:52:12.501Z,100398.13
2023-03-11T23:54:39.010Z,100396.59
2023-03-11T23:57:05.479Z,100396.81
2023-03-11T23:59:33.744Z,100391.56
